createdAt,value
2019-05-20T00:01:28.993Z,95428.50
2019-05-20T00:03:54.837Z,95430.53
2019-05-20T00:06:20.683Z,95426.49
2019-05-20T00:08:46.559Z,95426.88
2019-05-20T00:11:12.451Z,95425.25
2019-05-20T00:13:38.275Z,95421.63
2019-05-20T00:16:04.168Z,95423.25
2019-05-20T00:18:29.984Z,95419.53
2019-05-20T00:20:55.844Z,95421.09
2019-05-20T00:23:21.714Z,95410.25
2019-05-20T00:25:47.584Z,95407.41
2019-05-20T00:28:13.424Z,95400.90
2019-05-20T00:30:39.308Z,95397.05
2019-05-20T00:33:05.139Z,95395.34
2019-05-20T00:35:31.003Z,95390.05
2019-05-20T00:37:56.859Z,95387.39
2019-05-20T00:40:22.766Z,95373.34
2019-05-20T00:42:48.697Z,95384.58
2019-05-20T00:45:14.656Z,95375.59
2019-05-20T00:47:40.531Z,95372.80
2019-05-20T00:50:06.874Z,95369.48
2019-05-20T00:52:32.749Z,95365.02
2019-05-20T00:54:58.707Z,95363.32
2019-05-20T00:57:24.576Z,95366.64
2019-05-20T00:59:50.388Z,95369.40
2019-05-20T01:02:16.276Z,95366.69
2019-05-20T01:04:42.123Z,95369.78
2019-05-20T01:07:08.042Z,95369.17
2019-05-20T01:09:33.906Z,95369.30
2019-05-20T01:11:59.742Z,95369.02
2019-05-20T01:14:26.090Z,95369.78
2019-05-20T01:16:51.974Z,95365.36
2019-05-20T01:19:17.926Z,95357.72
2019-05-20T01:21:43.747Z,95355.30
2019-05-20T01:24:09.646Z,95347.75
2019-05-20T01:26:35.484Z,95344.91
2019-05-20T01:29:01.440Z,95338.52
2019-05-20T01:31:27.305Z,95333.80
2019-05-20T01:33:53.166Z,95331.06
2019-05-20T01:36:18.994Z,95331.93
2019-05-20T01:38:44.865Z,95328.46
2019-05-20T01:41:10.690Z,95334.10
2019-05-20T01:43:36.586Z,95337.02
2019-05-20T01:46:02.537Z,95334.11
2019-05-20T01:48:28.433Z,95333.24
2019-05-20T01:50:54.270Z,95337.27
2019-05-20T01:53:20.109Z,95332.75
2019-05-20T01:55:45.983Z,95337.71
2019-05-20T01:58:11.837Z,95333.45
2019-05-20T02:00:37.690Z,95329.52
2019-05-20T02:03:03.562Z,95319.34
2019-05-20T02:05:29.416Z,95325.88
2019-05-20T02:07:55.248Z,95325.88
2019-05-20T02:10:21.113Z,95319.44
2019-05-20T02:12:46.960Z,95316.38
2019-05-20T02:15:33.359Z,95320.95
2019-05-20T02:17:59.218Z,95314.99
2019-05-20T02:20:25.187Z,95312.34
2019-05-20T02:22:52.955Z,95306.71
2019-05-20T02:25:18.811Z,95306.45
2019-05-20T02:27:44.686Z,95298.55
2019-05-20T02:30:10.851Z,95303.00
2019-05-20T02:32:36.702Z,95298.27
2019-05-20T02:35:04.774Z,95296.70
2019-05-20T02:37:30.613Z,95302.06
2019-05-20T02:39:56.470Z,95292.67
2019-05-20T02:42:22.347Z,95291.98
2019-05-20T02:44:48.216Z,95282.51
2019-05-20T02:47:14.071Z,95279.09
2019-05-20T02:49:40.048Z,95280.80
2019-05-20T02:52:05.915Z,95277.38
2019-05-20T02:54:31.760Z,95281.17
2019-05-20T02:56:57.649Z,95284.22
2019-05-20T02:59:23.493Z,95282.34
2019-05-20T03:01:49.350Z,95288.42
2019-05-20T03:04:15.226Z,95289.95
2019-05-20T03:06:41.155Z,95284.44
2019-05-20T03:09:06.978Z,95281.96
2019-05-20T03:11:32.811Z,95291.27
2019-05-20T03:13:58.677Z,95280.44
2019-05-20T03:16:24.531Z,95278.53
2019-05-20T03:18:50.377Z,95281.01
2019-05-20T03:21:16.303Z,95281.77
2019-05-20T03:23:42.284Z,95282.53
2019-05-20T03:26:08.088Z,95291.08
2019-05-20T03:28:34.453Z,95287.28
2019-05-20T03:31:00.312Z,95293.56
2019-05-20T03:33:26.162Z,95289.94
2019-05-20T03:35:51.982Z,95282.53
2019-05-20T03:38:17.823Z,95288.23
2019-05-20T03:40:43.669Z,95289.75
2019-05-20T03:43:09.530Z,95290.70
2019-05-20T03:45:35.380Z,95290.53
2019-05-20T03:48:01.217Z,95283.13
2019-05-20T03:50:27.033Z,95289.17
2019-05-20T03:52:52.896Z,95279.12
2019-05-20T03:55:18.848Z,95280.83
2019-05-20T03:57:44.685Z,95280.09
2019-05-20T04:00:11.372Z,95281.60
2019-05-20T04:02:37.349Z,95280.66
2019-05-20T04:05:03.921Z,95271.72
2019-05-20T04:07:29.732Z,95275.70
2019-05-20T04:09:55.600Z,95273.03
2019-05-20T04:12:21.420Z,95269.81
2019-05-20T04:14:47.263Z,95270.37
2019-05-20T04:17:13.149Z,95274.95
2019-05-20T04:19:38.963Z,95270.93
2019-05-20T04:22:04.872Z,95275.50
2019-05-20T04:24:30.719Z,95276.23
2019-05-20T04:26:57.819Z,95278.33
2019-05-20T04:29:23.759Z,95277.53
2019-05-20T04:31:49.718Z,95283.84
2019-05-20T04:34:15.628Z,95278.51
2019-05-20T04:36:41.459Z,95277.93
2019-05-20T04:39:07.308Z,95281.89
2019-05-20T04:41:35.597Z,95283.80
2019-05-20T04:44:01.191Z,95282.27
2019-05-20T04:46:27.151Z,95284.19
2019-05-20T04:48:53.011Z,95281.09
2019-05-20T04:51:18.874Z,95283.95
2019-05-20T04:53:44.742Z,95265.61
2019-05-20T04:56:10.587Z,95287.06
2019-05-20T04:58:36.433Z,95289.73
2019-05-20T05:01:02.302Z,95292.97
2019-05-20T05:03:28.232Z,95292.59
2019-05-20T05:05:54.371Z,95297.16
2019-05-20T05:08:20.609Z,95293.72
2019-05-20T05:10:46.549Z,95283.75
2019-05-20T05:13:12.520Z,95289.30
2019-05-20T05:15:38.360Z,95290.66
2019-05-20T05:18:04.309Z,95290.63
2019-05-20T05:20:30.233Z,95294.27
2019-05-20T05:22:56.198Z,95295.23
2019-05-20T05:25:22.130Z,95297.50
2019-05-20T05:27:48.069Z,95302.48
2019-05-20T05:30:14.032Z,95301.73
2019-05-20T05:32:40.393Z,95296.94
2019-05-20T05:35:06.346Z,95296.96
2019-05-20T05:37:32.185Z,95291.26
2019-05-20T05:39:58.047Z,95287.05
2019-05-20T05:42:23.870Z,95283.23
2019-05-20T05:44:49.720Z,95289.03
2019-05-20T05:47:15.540Z,95284.89
2019-05-20T05:49:41.375Z,95287.06
2019-05-20T05:52:07.235Z,95293.46
2019-05-20T05:54:33.066Z,95288.22
2019-05-20T05:56:58.934Z,95299.84
2019-05-20T05:59:24.836Z,95298.96
2019-05-20T06:01:50.712Z,95298.02
2019-05-20T06:04:16.573Z,95287.36
2019-05-20T06:06:42.413Z,95287.36
2019-05-20T06:09:08.300Z,95294.89
2019-05-20T06:11:34.139Z,95296.31
2019-05-20T06:14:00.030Z,95299.97
2019-05-20T06:16:36.094Z,95296.95
2019-05-20T06:18:53.625Z,95297.81
2019-05-20T06:21:19.471Z,95303.19
2019-05-20T06:23:45.345Z,95300.50
2019-05-20T06:26:11.184Z,95315.80
2019-05-20T06:28:37.046Z,95317.86
2019-05-20T06:31:02.883Z,95320.59
2019-05-20T06:33:28.804Z,95322.28
2019-05-20T06:35:54.965Z,95320.90
2019-05-20T06:38:34.971Z,95322.00
2019-05-20T06:41:01.453Z,95326.55
2019-05-20T06:43:27.290Z,95324.20
2019-05-20T06:45:53.175Z,95322.63
2019-05-20T06:48:19.018Z,95324.88
2019-05-20T06:50:44.859Z,95320.08
2019-05-20T06:53:10.714Z,95316.04
2019-05-20T06:55:36.650Z,95312.73
2019-05-20T06:58:02.698Z,95315.03
2019-05-20T07:00:36.656Z,95316.55
2019-05-20T07:03:03.711Z,95314.09
2019-05-20T07:05:29.539Z,95318.20
2019-05-20T07:07:55.411Z,95323.93
2019-05-20T07:10:21.338Z,95308.83
2019-05-20T07:12:47.178Z,95308.83
2019-05-20T07:15:13.159Z,95323.70
2019-05-20T07:17:38.972Z,95326.47
2019-05-20T07:20:04.941Z,95322.16
2019-05-20T07:22:30.836Z,95325.02
2019-05-20T07:24:56.639Z,95323.67
2019-05-20T07:27:22.518Z,95325.95
2019-05-20T07:29:48.391Z,95330.13
2019-05-20T07:32:14.303Z,95328.56
2019-05-20T07:34:40.141Z,95323.84
2019-05-20T07:37:06.009Z,95331.95
2019-05-20T07:39:31.952Z,95328.66
2019-05-20T07:41:57.909Z,95321.63
2019-05-20T07:44:23.740Z,95329.39
2019-05-20T07:46:49.912Z,95326.08
2019-05-20T07:49:16.052Z,95326.03
2019-05-20T07:51:42.118Z,95328.75
2019-05-20T07:54:08.371Z,95324.77
2019-05-20T07:56:37.598Z,95322.56
2019-05-20T07:59:04.559Z,95328.30
2019-05-20T08:01:30.511Z,95332.09
2019-05-20T08:03:56.366Z,95332.20
2019-05-20T08:06:22.440Z,95328.56
2019-05-20T08:08:48.351Z,95334.63
2019-05-20T08:11:14.279Z,95336.52
2019-05-20T08:13:40.268Z,95330.73
2019-05-20T08:16:06.083Z,95336.08
2019-05-20T08:18:31.928Z,95336.80
2019-05-20T08:20:57.865Z,95335.82
2019-05-20T08:23:23.759Z,95336.03
2019-05-20T08:25:49.610Z,95339.65
2019-05-20T08:28:15.447Z,95340.98
2019-05-20T08:30:41.291Z,95342.98
2019-05-20T08:33:07.303Z,95341.47
2019-05-20T08:35:33.302Z,95338.05
2019-05-20T08:37:59.207Z,95345.23
2019-05-20T08:40:25.056Z,95344.35
2019-05-20T08:42:50.873Z,95349.66
2019-05-20T08:45:16.974Z,95345.81
2019-05-20T08:47:42.821Z,95344.93
2019-05-20T08:50:14.228Z,95345.35
2019-05-20T08:52:36.852Z,95349.14
2019-05-20T08:55:03.622Z,95352.76
2019-05-20T08:57:29.457Z,95354.09
2019-05-20T08:59:55.316Z,95352.81
2019-05-20T09:02:21.165Z,95347.81
2019-05-20T09:04:47.038Z,95348.36
2019-05-20T09:07:12.885Z,95345.38
2019-05-20T09:09:38.863Z,95351.27
2019-05-20T09:12:04.791Z,95355.19
2019-05-20T09:14:30.649Z,95356.86
2019-05-20T09:16:56.501Z,95349.39
2019-05-20T09:19:22.348Z,95352.97
2019-05-20T09:21:48.219Z,95355.27
2019-05-20T09:24:16.429Z,95354.25
2019-05-20T09:26:41.984Z,95347.01
2019-05-20T09:29:11.270Z,95348.11
2019-05-20T09:31:35.578Z,95349.09
2019-05-20T09:34:01.503Z,95352.55
2019-05-20T09:36:27.329Z,95348.09
2019-05-20T09:38:53.186Z,95350.60
2019-05-20T09:41:19.032Z,95349.12
2019-05-20T09:43:44.963Z,95336.80
2019-05-20T09:46:11.130Z,95346.05
2019-05-20T09:48:36.996Z,95345.78
2019-05-20T09:51:02.856Z,95343.37
2019-05-20T09:53:28.727Z,95341.66
2019-05-20T09:55:54.574Z,95336.86
2019-05-20T09:58:20.444Z,95337.33
2019-05-20T10:00:46.304Z,95331.77
2019-05-20T10:03:12.123Z,95333.28
2019-05-20T10:05:38.124Z,95333.77
2019-05-20T10:08:04.017Z,95330.75
2019-05-20T10:10:30.562Z,95328.00
2019-05-20T10:12:56.540Z,95331.83
2019-05-20T10:15:22.706Z,95332.23
2019-05-20T10:17:48.564Z,95328.54
2019-05-20T10:20:16.040Z,95321.39
2019-05-20T10:22:41.877Z,95330.94
2019-05-20T10:25:08.342Z,95326.38
2019-05-20T10:27:34.180Z,95326.15
2019-05-20T10:30:00.141Z,95323.34
2019-05-20T10:32:26.000Z,95327.53
2019-05-20T10:34:51.821Z,95329.64
2019-05-20T10:37:17.865Z,95327.80
2019-05-20T10:39:43.710Z,95332.06
2019-05-20T10:42:09.546Z,95328.20
2019-05-20T10:44:35.425Z,95331.25
2019-05-20T10:47:01.295Z,95331.07
2019-05-20T10:49:27.124Z,95333.69
2019-05-20T10:51:52.992Z,95328.80
2019-05-20T10:54:18.827Z,95336.72
2019-05-20T10:56:44.666Z,95336.86
2019-05-20T10:59:12.066Z,95337.55
2019-05-20T11:01:38.278Z,95330.72
2019-05-20T11:04:04.657Z,95331.63
2019-05-20T11:06:30.580Z,95333.01
2019-05-20T11:08:56.428Z,95331.13
2019-05-20T11:11:22.271Z,95342.48
2019-05-20T11:13:48.133Z,95331.87
2019-05-20T11:16:13.964Z,95338.72
2019-05-20T11:18:39.829Z,95336.97
2019-05-20T11:21:05.666Z,95333.96
2019-05-20T11:23:31.516Z,95329.14
2019-05-20T11:25:57.450Z,95332.46
2019-05-20T11:28:23.289Z,95328.72
2019-05-20T11:30:49.135Z,95328.78
2019-05-20T11:33:14.962Z,95326.30
2019-05-20T11:35:40.893Z,95329.59
2019-05-20T11:38:06.768Z,95328.13
2019-05-20T11:40:32.711Z,95326.88
2019-05-20T11:42:58.530Z,95319.90
2019-05-20T11:45:24.365Z,95323.33
2019-05-20T11:47:50.307Z,95325.31
2019-05-20T11:50:16.280Z,95322.02
2019-05-20T11:52:42.096Z,95315.09
2019-05-20T11:55:08.275Z,95320.44
2019-05-20T11:57:34.078Z,95320.95
2019-05-20T11:59:59.919Z,95330.14
2019-05-20T12:02:25.760Z,95326.53
2019-05-20T12:04:51.855Z,95323.27
2019-05-20T12:07:17.712Z,95327.03
2019-05-20T12:09:49.783Z,95322.32
2019-05-20T12:12:11.374Z,95323.91
2019-05-20T12:14:37.215Z,95317.41
2019-05-20T12:17:03.197Z,95319.70
2019-05-20T12:19:29.032Z,95318.78
2019-05-20T12:21:54.905Z,95319.33
2019-05-20T12:24:20.744Z,95316.30
2019-05-20T12:26:46.612Z,95320.44
2019-05-20T12:29:12.439Z,95313.58
2019-05-20T12:31:38.275Z,95314.97
2019-05-20T12:34:04.148Z,95313.68
2019-05-20T12:36:30.010Z,95314.36
2019-05-20T12:38:55.886Z,95314.70
2019-05-20T12:41:21.785Z,95315.22
2019-05-20T12:43:47.693Z,95318.00
2019-05-20T12:46:13.520Z,95315.93
2019-05-20T12:48:39.515Z,95318.58
2019-05-20T12:51:05.398Z,95314.36
2019-05-20T12:53:31.233Z,95320.09
2019-05-20T12:55:57.109Z,95320.87
2019-05-20T12:58:22.991Z,95322.42
2019-05-20T13:00:49.318Z,95321.15
2019-05-20T13:03:15.178Z,95319.36
2019-05-20T13:05:41.111Z,95315.66
2019-05-20T13:08:06.987Z,95317.03
2019-05-20T13:10:32.956Z,95318.89
2019-05-20T13:12:58.837Z,95312.55
2019-05-20T13:15:24.676Z,95316.47
2019-05-20T13:17:50.541Z,95313.12
2019-05-20T13:20:16.515Z,95313.87
2019-05-20T13:22:42.808Z,95311.27
2019-05-20T13:25:08.653Z,95313.19
2019-05-20T13:27:34.522Z,95305.99
2019-05-20T13:30:00.473Z,95314.19
2019-05-20T13:32:26.342Z,95302.20
2019-05-20T13:34:52.227Z,95312.53
2019-05-20T13:37:18.057Z,95306.02
2019-05-20T13:39:43.936Z,95307.48
2019-05-20T13:42:09.883Z,95300.45
2019-05-20T13:44:35.744Z,95298.69
2019-05-20T13:47:01.644Z,95301.17
2019-05-20T13:49:27.687Z,95295.66
2019-05-20T13:51:53.502Z,95289.25
2019-05-20T13:54:19.406Z,95294.13
2019-05-20T13:56:45.351Z,95287.95
2019-05-20T13:59:11.193Z,95282.94
2019-05-20T14:01:37.067Z,95284.64
2019-05-20T14:04:03.000Z,95279.73
2019-05-20T14:06:28.961Z,95280.12
2019-05-20T14:08:54.813Z,95278.67
2019-05-20T14:11:33.859Z,95278.78
2019-05-20T14:13:48.440Z,95271.43
2019-05-20T14:16:14.308Z,95275.25
2019-05-20T14:18:40.166Z,95267.45
2019-05-20T14:21:06.203Z,95259.42
2019-05-20T14:23:32.074Z,95259.02
2019-05-20T14:25:57.934Z,95261.72
2019-05-20T14:28:23.825Z,95260.39
2019-05-20T14:30:49.743Z,95262.27
2019-05-20T14:33:15.639Z,95254.77
2019-05-20T14:35:41.492Z,95254.94
2019-05-20T14:38:07.348Z,95249.92
2019-05-20T14:40:33.182Z,95259.38
2019-05-20T14:42:59.131Z,95255.77
2019-05-20T14:45:24.923Z,95254.25
2019-05-20T14:47:50.797Z,95255.05
2019-05-20T14:50:16.773Z,95254.73
2019-05-20T14:52:42.664Z,95260.10
2019-05-20T14:55:08.994Z,95267.24
2019-05-20T14:57:34.912Z,95263.45
2019-05-20T15:00:00.906Z,95264.14
2019-05-20T15:02:30.753Z,95262.05
2019-05-20T15:04:54.545Z,95265.63
2019-05-20T15:07:30.282Z,95270.99
2019-05-20T15:09:48.810Z,95271.72
2019-05-20T15:12:14.644Z,95271.36
2019-05-20T15:14:42.525Z,95267.35
2019-05-20T15:17:08.249Z,95269.84
2019-05-20T15:19:34.108Z,95273.48
2019-05-20T15:22:00.410Z,95273.45
2019-05-20T15:24:26.320Z,95274.85
2019-05-20T15:26:52.310Z,95281.57
2019-05-20T15:29:27.701Z,95278.45
2019-05-20T15:31:46.036Z,95283.28
2019-05-20T15:34:11.881Z,95287.47
2019-05-20T15:36:37.737Z,95280.77
2019-05-20T15:39:05.069Z,95276.00
2019-05-20T15:41:30.969Z,95269.38
2019-05-20T15:43:56.851Z,95270.95
2019-05-20T15:46:22.704Z,95272.59
2019-05-20T15:48:48.559Z,95272.54
2019-05-20T15:51:14.500Z,95262.30
2019-05-20T15:53:40.351Z,95268.08
2019-05-20T15:56:06.194Z,95262.11
2019-05-20T15:58:32.283Z,95264.21
2019-05-20T16:00:58.107Z,95268.25
2019-05-20T16:03:23.973Z,95264.61
2019-05-20T16:05:53.159Z,95269.16
2019-05-20T16:08:19.104Z,95264.50
2019-05-20T16:10:44.958Z,95265.47
2019-05-20T16:13:11.239Z,95259.05
2019-05-20T16:15:37.098Z,95258.18
2019-05-20T16:18:03.321Z,95259.52
2019-05-20T16:20:30.012Z,95256.45
2019-05-20T16:22:55.945Z,95254.22
2019-05-20T16:25:21.795Z,95259.38
2019-05-20T16:27:47.647Z,95259.05
2019-05-20T16:30:13.596Z,95260.52
2019-05-20T16:32:39.736Z,95254.45
2019-05-20T16:35:05.862Z,95257.67
2019-05-20T16:37:31.812Z,95250.40
2019-05-20T16:39:57.887Z,95252.86
2019-05-20T16:42:23.834Z,95256.68
2019-05-20T16:44:49.728Z,95254.80
2019-05-20T16:47:15.728Z,95254.45
2019-05-20T16:49:41.545Z,95250.37
2019-05-20T16:52:07.562Z,95248.97
2019-05-20T16:54:33.530Z,95245.72
2019-05-20T16:56:59.418Z,95246.03
2019-05-20T16:59:25.329Z,95249.67
2019-05-20T17:01:51.313Z,95250.42
2019-05-20T17:04:17.504Z,95252.78
2019-05-20T17:09:31.848Z,95253.51
2019-05-20T17:12:08.569Z,95251.68
2019-05-20T17:14:34.435Z,95258.34
2019-05-20T17:17:00.278Z,95261.77
2019-05-20T17:19:26.161Z,95258.34
2019-05-20T17:21:52.022Z,95259.08
2019-05-20T17:24:17.927Z,95262.30
2019-05-20T17:26:58.897Z,95267.19
2019-05-20T17:29:24.927Z,95271.70
2019-05-20T17:31:50.779Z,95263.19
2019-05-20T17:34:16.722Z,95270.13
2019-05-20T17:36:42.655Z,95270.92
2019-05-20T17:39:08.616Z,95275.23
2019-05-20T17:41:34.493Z,95279.84
2019-05-20T17:44:00.362Z,95283.48
2019-05-20T17:46:26.203Z,95274.94
2019-05-20T17:48:52.067Z,95279.30
2019-05-20T17:51:17.918Z,95281.38
2019-05-20T17:53:43.771Z,95277.23
2019-05-20T17:56:09.735Z,95265.23
2019-05-20T17:58:37.417Z,95267.71
2019-05-20T18:01:14.966Z,95265.64
2019-05-20T18:03:31.413Z,95261.07
2019-05-20T18:05:57.279Z,95261.44
2019-05-20T18:08:25.110Z,95271.77
2019-05-20T18:10:50.937Z,95269.98
2019-05-20T18:13:16.820Z,95263.15
2019-05-20T18:15:42.667Z,95270.07
2019-05-20T18:18:08.486Z,95265.32
2019-05-20T18:20:34.837Z,95260.91
2019-05-20T18:23:00.740Z,95246.48
2019-05-20T18:25:26.602Z,95252.59
2019-05-20T18:27:52.468Z,95252.87
2019-05-20T18:30:19.682Z,95250.20
2019-05-20T18:32:45.543Z,95252.51
2019-05-20T18:35:11.631Z,95253.82
2019-05-20T18:37:37.480Z,95255.31
2019-05-20T18:40:13.348Z,95264.91
2019-05-20T18:42:32.334Z,95253.89
2019-05-20T18:44:58.200Z,95254.76
2019-05-20T18:47:24.058Z,95250.34
2019-05-20T18:49:49.909Z,95247.48
2019-05-20T18:52:15.739Z,95241.98
2019-05-20T18:54:41.601Z,95239.70
2019-05-20T18:57:07.649Z,95248.73
2019-05-20T18:59:33.496Z,95248.73
2019-05-20T19:02:04.971Z,95249.57
2019-05-20T19:04:27.490Z,95246.33
2019-05-20T19:06:53.481Z,95236.72
2019-05-20T19:09:19.414Z,95242.98
2019-05-20T19:11:45.318Z,95246.66
2019-05-20T19:14:11.178Z,95254.44
2019-05-20T19:16:37.164Z,95249.81
2019-05-20T19:19:03.121Z,95260.61
2019-05-20T19:21:29.112Z,95260.23
2019-05-20T19:23:55.014Z,95258.94
2019-05-20T19:26:25.077Z,95264.66
2019-05-20T19:28:48.704Z,95267.89
2019-05-20T19:31:14.590Z,95263.78
2019-05-20T19:33:40.471Z,95266.98
2019-05-20T19:36:06.316Z,95262.63
2019-05-20T19:38:34.928Z,95263.39
2019-05-20T19:40:59.991Z,95264.72
2019-05-20T19:43:26.647Z,95260.35
2019-05-20T19:45:52.526Z,95266.11
2019-05-20T19:48:18.542Z,95249.67
2019-05-20T19:50:44.420Z,95252.56
2019-05-20T19:53:10.335Z,95253.66
2019-05-20T19:55:36.207Z,95259.91
2019-05-20T19:58:02.208Z,95263.09
2019-05-20T20:00:28.206Z,95264.18
2019-05-20T20:02:54.178Z,95255.89
2019-05-20T20:05:20.041Z,95253.23
2019-05-20T20:07:45.900Z,95261.80
2019-05-20T20:10:11.835Z,95263.89
2019-05-20T20:12:37.704Z,95264.77
2019-05-20T20:15:06.851Z,95269.36
2019-05-20T20:17:32.704Z,95266.91
2019-05-20T20:19:58.661Z,95268.97
2019-05-20T20:22:24.635Z,95272.19
2019-05-20T20:24:50.501Z,95272.58
2019-05-20T20:27:16.462Z,95282.58
2019-05-20T20:29:42.290Z,95285.09
2019-05-20T20:32:08.234Z,95289.59
2019-05-20T20:34:34.091Z,95289.44
2019-05-20T20:36:59.952Z,95287.17
2019-05-20T20:39:25.813Z,95287.08
2019-05-20T20:41:51.660Z,95291.00
2019-05-20T20:44:17.506Z,95291.06
2019-05-20T20:46:43.355Z,95291.27
2019-05-20T20:49:09.286Z,95288.21
2019-05-20T20:51:35.189Z,95292.24
2019-05-20T20:54:01.018Z,95293.52
2019-05-20T20:56:27.049Z,95296.20
2019-05-20T20:58:52.927Z,95297.64
2019-05-20T21:01:18.765Z,95300.74
2019-05-20T21:03:44.635Z,95302.15
2019-05-20T21:06:10.574Z,95298.73
2019-05-20T21:08:36.449Z,95302.09
2019-05-20T21:11:02.296Z,95298.97
2019-05-20T21:13:28.130Z,95312.72
2019-05-20T21:15:53.981Z,95305.03
2019-05-20T21:18:19.833Z,95307.61
2019-05-20T21:20:45.694Z,95310.07
2019-05-20T21:23:11.557Z,95308.89
2019-05-20T21:25:37.397Z,95305.41
2019-05-20T21:28:03.243Z,95308.08
2019-05-20T21:30:29.084Z,95302.42
2019-05-20T21:33:08.333Z,95302.92
2019-05-20T21:35:22.741Z,95308.62
2019-05-20T21:37:48.576Z,95306.53
2019-05-20T21:40:14.538Z,95309.59
2019-05-20T21:42:40.384Z,95307.23
2019-05-20T21:45:06.443Z,95308.09
2019-05-20T21:47:32.289Z,95301.84
2019-05-20T21:49:58.146Z,95304.22
2019-05-20T21:52:24.111Z,95304.39
2019-05-20T21:54:50.255Z,95309.90
2019-05-20T21:57:16.380Z,95305.55
2019-05-20T21:59:42.185Z,95300.31
2019-05-20T22:02:08.149Z,95298.34
2019-05-20T22:04:34.004Z,95302.81
2019-05-20T22:06:59.848Z,95300.41
2019-05-20T22:09:25.696Z,95304.09
2019-05-20T22:11:51.567Z,95299.09
2019-05-20T22:14:17.386Z,95295.50
2019-05-20T22:16:43.434Z,95296.33
2019-05-20T22:19:09.291Z,95290.45
2019-05-20T22:21:37.038Z,95299.66
2019-05-20T22:24:07.312Z,95296.83
2019-05-20T22:26:33.165Z,95294.44
2019-05-20T22:28:59.019Z,95292.95
2019-05-20T22:32:02.377Z,95290.22
2019-05-20T22:34:28.222Z,95291.72
2019-05-20T22:36:54.055Z,95291.08
2019-05-20T22:39:19.913Z,95291.25
2019-05-20T22:41:45.752Z,95289.19
2019-05-20T22:44:11.636Z,95291.53
2019-05-20T22:46:37.479Z,95293.54
2019-05-20T22:49:03.317Z,95290.20
2019-05-20T22:51:29.274Z,95293.54
2019-05-20T22:53:55.097Z,95287.48
2019-05-20T22:56:20.943Z,95295.42
2019-05-20T22:58:46.777Z,95296.50
2019-05-20T23:01:12.625Z,95293.93
2019-05-20T23:03:38.471Z,95286.03
2019-05-20T23:06:04.389Z,95286.98
2019-05-20T23:08:30.264Z,95286.70
2019-05-20T23:10:56.097Z,95284.23
2019-05-20T23:13:21.950Z,95288.58
2019-05-20T23:15:47.795Z,95280.63
2019-05-20T23:18:13.647Z,95282.99
2019-05-20T23:20:39.479Z,95280.73
2019-05-20T23:23:05.345Z,95283.75
2019-05-20T23:25:31.242Z,95281.42
2019-05-20T23:27:57.083Z,95284.91
2019-05-20T23:30:22.919Z,95283.03
2019-05-20T23:32:48.803Z,95287.75
2019-05-20T23:35:14.639Z,95283.38
2019-05-20T23:37:40.517Z,95285.41
2019-05-20T23:40:06.461Z,95281.41
2019-05-20T23:42:32.383Z,95279.41
2019-05-20T23:44:58.221Z,95283.84
2019-05-20T23:47:24.023Z,95288.23
2019-05-20T23:49:49.829Z,95286.50
2019-05-20T23:52:15.637Z,95286.55
2019-05-20T23:54:41.446Z,95285.55
2019-05-20T23:57:07.297Z,95281.30
2019-05-20T23:59:33.079Z,95277.88
